createdAt,value
2017-10-25T00:02:16.139Z,2.57
2017-10-25T00:04:42.706Z,2.43
2017-10-25T00:07:09.297Z,2.30
2017-10-25T00:09:35.868Z,2.20
2017-10-25T00:12:02.436Z,3.27
2017-10-25T00:14:29.014Z,2.57
2017-10-25T00:16:55.597Z,3.10
2017-10-25T00:19:22.179Z,4.40
2017-10-25T00:21:48.752Z,2.70
2017-10-25T00:24:15.325Z,3.97
2017-10-25T00:26:41.909Z,2.60
2017-10-25T00:29:08.484Z,2.40
2017-10-25T00:31:35.064Z,2.80
2017-10-25T00:34:01.701Z,2.33
2017-10-25T00:36:28.273Z,3.87
2017-10-25T00:38:54.865Z,2.40
2017-10-25T00:41:21.443Z,2.13
2017-10-25T00:43:48.028Z,3.70
2017-10-25T00:46:14.604Z,2.23
2017-10-25T00:48:41.174Z,6.40
2017-10-25T00:51:07.781Z,4.10
2017-10-25T00:53:34.349Z,2.20
2017-10-25T00:56:00.949Z,6.17
2017-10-25T00:58:27.525Z,3.47
2017-10-25T01:00:54.092Z,6.60
2017-10-25T01:03:20.685Z,10.50
2017-10-25T01:05:48.092Z,2.90
2017-10-25T01:08:14.676Z,2.17
2017-10-25T01:10:41.288Z,1.93
2017-10-25T01:13:07.856Z,4.67
2017-10-25T01:15:34.435Z,2.73
2017-10-25T01:18:01.004Z,5.00
2017-10-25T01:20:27.577Z,1.90
2017-10-25T01:22:54.152Z,1.70
2017-10-25T01:25:20.721Z,2.00
2017-10-25T01:27:47.301Z,2.13
2017-10-25T01:30:13.888Z,2.07
2017-10-25T01:32:40.473Z,3.10
2017-10-25T01:35:07.050Z,3.23
2017-10-25T01:37:33.628Z,2.60
2017-10-25T01:40:00.201Z,3.90
2017-10-25T01:42:26.772Z,2.40
2017-10-25T01:44:53.360Z,3.50
2017-10-25T01:47:19.932Z,2.30
2017-10-25T01:49:46.518Z,3.00
2017-10-25T01:52:13.088Z,4.77
2017-10-25T01:54:39.657Z,3.30
2017-10-25T01:57:06.237Z,2.10
2017-10-25T01:59:32.805Z,2.37
2017-10-25T02:01:59.396Z,2.20
2017-10-25T02:04:25.982Z,2.07
2017-10-25T02:06:52.549Z,3.33
2017-10-25T02:09:19.125Z,2.40
2017-10-25T02:11:45.693Z,2.27
2017-10-25T02:14:12.292Z,5.00
2017-10-25T02:16:38.864Z,2.17
2017-10-25T02:19:05.454Z,3.87
2017-10-25T02:21:32.030Z,2.03
2017-10-25T02:23:58.615Z,2.43
2017-10-25T02:26:25.192Z,3.13
2017-10-25T02:28:51.761Z,2.30
2017-10-25T02:31:18.328Z,2.93
2017-10-25T02:33:44.908Z,2.33
2017-10-25T02:36:11.522Z,2.20
2017-10-25T02:38:38.114Z,1.90
2017-10-25T02:41:04.685Z,4.63
2017-10-25T02:43:31.249Z,2.27
2017-10-25T02:45:57.852Z,2.10
2017-10-25T02:48:24.428Z,2.37
2017-10-25T02:50:51.014Z,2.10
2017-10-25T02:53:17.604Z,4.70
2017-10-25T02:55:44.171Z,2.73
2017-10-25T02:58:10.744Z,2.30
2017-10-25T03:00:37.320Z,4.33
2017-10-25T03:03:03.932Z,2.50
2017-10-25T03:05:30.519Z,7.30
2017-10-25T03:07:57.081Z,2.20
2017-10-25T03:10:23.657Z,2.07
2017-10-25T03:12:50.229Z,3.07
2017-10-25T03:15:16.825Z,6.70
2017-10-25T03:17:43.408Z,2.10
2017-10-25T03:20:09.981Z,2.13
2017-10-25T03:22:36.566Z,4.73
2017-10-25T03:25:03.132Z,2.87
2017-10-25T03:27:29.712Z,5.43
2017-10-25T03:29:56.295Z,4.83
2017-10-25T03:32:22.869Z,4.93
2017-10-25T03:34:49.444Z,2.83
2017-10-25T03:37:16.017Z,4.30
2017-10-25T03:39:42.617Z,3.10
2017-10-25T03:42:09.208Z,4.27
2017-10-25T03:44:35.785Z,3.43
2017-10-25T03:47:02.376Z,3.53
2017-10-25T03:49:28.936Z,4.13
2017-10-25T03:51:55.527Z,3.37
2017-10-25T03:54:22.095Z,3.43
2017-10-25T03:56:48.669Z,5.33
2017-10-25T03:59:15.252Z,3.67
2017-10-25T04:01:41.817Z,5.17
2017-10-25T04:04:08.396Z,5.73
2017-10-25T04:06:34.965Z,3.77
2017-10-25T04:09:01.542Z,6.10
2017-10-25T04:11:28.116Z,5.53
2017-10-25T04:13:54.687Z,3.50
2017-10-25T04:16:21.264Z,3.77
2017-10-25T04:18:47.832Z,3.43
2017-10-25T04:21:14.407Z,4.00
2017-10-25T04:23:41.018Z,3.67
2017-10-25T04:26:07.592Z,3.37
2017-10-25T04:28:34.184Z,3.83
2017-10-25T04:31:00.763Z,3.93
2017-10-25T04:33:27.328Z,3.10
2017-10-25T04:35:53.900Z,7.37
2017-10-25T04:38:20.476Z,3.87
2017-10-25T04:40:47.062Z,2.80
2017-10-25T04:43:13.635Z,3.53
2017-10-25T04:45:40.294Z,3.60
2017-10-25T04:48:06.864Z,4.40
2017-10-25T04:50:33.447Z,3.63
2017-10-25T04:53:00.027Z,7.80
2017-10-25T04:55:26.596Z,2.83
2017-10-25T04:57:53.168Z,3.23
2017-10-25T05:00:19.750Z,3.40
2017-10-25T05:02:46.321Z,3.10
2017-10-25T05:05:12.915Z,3.07
2017-10-25T05:07:39.498Z,3.10
2017-10-25T05:10:06.058Z,4.47
2017-10-25T05:12:32.632Z,3.67
2017-10-25T05:14:59.203Z,4.07
2017-10-25T05:17:25.784Z,9.13
2017-10-25T05:19:52.355Z,3.50
2017-10-25T05:22:18.921Z,5.53
2017-10-25T05:24:45.500Z,4.13
2017-10-25T05:27:12.072Z,4.70
2017-10-25T05:29:38.656Z,3.57
2017-10-25T05:32:05.231Z,4.10
2017-10-25T05:34:31.800Z,4.60
2017-10-25T05:36:58.373Z,3.90
2017-10-25T05:39:24.957Z,4.17
2017-10-25T05:41:51.533Z,3.50
2017-10-25T05:44:18.107Z,4.50
2017-10-25T05:46:44.680Z,4.10
2017-10-25T05:49:11.260Z,4.72
2017-10-25T05:51:37.834Z,3.40
2017-10-25T05:54:04.412Z,3.77
2017-10-25T05:56:31.001Z,5.63
2017-10-25T05:58:57.564Z,3.80
2017-10-25T06:01:24.161Z,3.60
2017-10-25T06:03:50.728Z,7.70
2017-10-25T06:06:17.313Z,3.57
2017-10-25T06:08:43.903Z,3.80
2017-10-25T06:11:10.488Z,3.80
2017-10-25T06:13:37.073Z,3.73
2017-10-25T06:16:03.697Z,6.30
2017-10-25T06:18:30.269Z,9.30
2017-10-25T06:20:56.834Z,4.60
2017-10-25T06:23:23.404Z,4.10
2017-10-25T06:25:49.972Z,3.93
2017-10-25T06:28:16.541Z,7.90
2017-10-25T06:30:43.128Z,3.87
2017-10-25T06:33:09.691Z,3.90
2017-10-25T06:35:36.269Z,3.93
2017-10-25T06:38:02.840Z,4.50
2017-10-25T06:40:29.410Z,4.03
2017-10-25T06:42:55.989Z,3.87
2017-10-25T06:45:22.559Z,6.60
2017-10-25T06:47:49.147Z,4.37
2017-10-25T06:50:15.708Z,4.20
2017-10-25T06:52:42.321Z,3.77
2017-10-25T06:55:08.943Z,5.67
2017-10-25T06:57:35.518Z,3.87
2017-10-25T07:00:02.083Z,4.03
2017-10-25T07:02:28.660Z,4.10
2017-10-25T07:04:55.240Z,5.63
2017-10-25T07:07:21.812Z,4.13
2017-10-25T07:09:48.392Z,4.10
2017-10-25T07:12:14.956Z,6.80
2017-10-25T07:14:41.532Z,4.43
2017-10-25T07:17:08.122Z,4.90
2017-10-25T07:19:34.688Z,5.00
2017-10-25T07:22:01.281Z,5.87
2017-10-25T07:24:27.856Z,4.77
2017-10-25T07:26:54.548Z,6.63
2017-10-25T07:29:21.100Z,5.43
2017-10-25T07:31:47.675Z,4.57
2017-10-25T07:34:14.308Z,6.17
2017-10-25T07:36:40.900Z,5.97
2017-10-25T07:39:07.479Z,6.33
2017-10-25T07:41:34.056Z,5.93
2017-10-25T07:44:00.624Z,5.00
2017-10-25T07:46:27.197Z,5.67
2017-10-25T07:48:53.776Z,7.53
2017-10-25T07:51:20.352Z,5.20
2017-10-25T07:53:46.923Z,6.40
2017-10-25T07:56:13.492Z,3.93
2017-10-25T07:58:40.065Z,5.53
2017-10-25T08:01:06.632Z,4.30
2017-10-25T08:03:33.212Z,4.10
2017-10-25T08:05:59.792Z,4.37
2017-10-25T08:08:26.365Z,3.53
2017-10-25T08:10:52.933Z,4.27
2017-10-25T08:13:19.508Z,3.63
2017-10-25T08:15:46.081Z,3.67
2017-10-25T08:18:12.662Z,4.73
2017-10-25T08:20:39.228Z,3.60
2017-10-25T08:23:05.808Z,7.23
2017-10-25T08:25:32.376Z,4.10
2017-10-25T08:27:58.944Z,5.20
2017-10-25T08:30:25.516Z,3.43
2017-10-25T08:32:52.197Z,3.40
2017-10-25T08:35:18.770Z,3.80
2017-10-25T08:37:45.334Z,3.77
2017-10-25T08:40:11.913Z,3.70
2017-10-25T08:42:38.484Z,3.33
2017-10-25T08:45:05.084Z,5.60
2017-10-25T08:47:31.637Z,4.87
2017-10-25T08:49:58.217Z,3.10
2017-10-25T08:52:24.870Z,3.07
2017-10-25T08:54:51.441Z,5.33
2017-10-25T08:57:18.088Z,3.43
2017-10-25T08:59:44.661Z,3.20
2017-10-25T09:02:11.232Z,2.90
2017-10-25T09:04:37.808Z,3.00
2017-10-25T09:07:04.391Z,4.03
2017-10-25T09:09:30.948Z,3.30
2017-10-25T09:11:57.520Z,2.90
2017-10-25T09:14:24.097Z,3.13
2017-10-25T09:16:50.664Z,2.83
2017-10-25T09:19:17.236Z,3.20
2017-10-25T09:21:43.812Z,3.20
2017-10-25T09:24:10.384Z,6.47
2017-10-25T09:26:36.966Z,3.40
2017-10-25T09:29:03.528Z,3.70
2017-10-25T09:31:30.116Z,3.33
2017-10-25T09:33:56.688Z,4.13
2017-10-25T09:36:23.266Z,5.50
2017-10-25T09:38:49.832Z,2.73
2017-10-25T09:41:16.404Z,8.27
2017-10-25T09:43:42.976Z,6.00
2017-10-25T09:46:09.550Z,2.73
2017-10-25T09:48:36.233Z,2.87
2017-10-25T09:51:02.800Z,2.70
2017-10-25T09:53:29.376Z,3.63
2017-10-25T09:55:55.949Z,3.90
2017-10-25T09:58:22.540Z,2.40
2017-10-25T10:00:49.100Z,2.33
2017-10-25T10:03:15.668Z,4.13
2017-10-25T10:05:42.253Z,2.70
2017-10-25T10:08:08.827Z,2.30
2017-10-25T10:10:35.408Z,2.13
2017-10-25T10:13:02.001Z,2.53
2017-10-25T10:15:28.551Z,4.20
2017-10-25T10:17:55.220Z,4.07
2017-10-25T10:20:21.772Z,3.67
2017-10-25T10:22:48.353Z,2.73
2017-10-25T10:25:14.935Z,4.63
2017-10-25T10:27:41.499Z,2.03
2017-10-25T10:30:08.091Z,2.70
2017-10-25T10:32:34.786Z,3.00
2017-10-25T10:35:01.360Z,2.57
2017-10-25T10:37:27.932Z,4.70
2017-10-25T10:39:54.522Z,3.13
2017-10-25T10:42:21.088Z,3.87
2017-10-25T10:44:49.020Z,2.50
2017-10-25T10:47:15.612Z,8.90
2017-10-25T10:49:42.189Z,4.73
2017-10-25T10:52:08.769Z,3.20
2017-10-25T10:54:35.332Z,3.60
2017-10-25T10:57:02.016Z,3.20
2017-10-25T10:59:28.576Z,2.63
2017-10-25T11:01:55.144Z,3.37
2017-10-25T11:04:21.729Z,4.40
2017-10-25T11:06:48.296Z,4.10
2017-10-25T11:09:14.880Z,10.50
2017-10-25T11:11:41.506Z,20.77
2017-10-25T11:14:08.060Z,11.77
2017-10-25T11:16:34.637Z,4.77
2017-10-25T11:19:01.209Z,5.93
2017-10-25T11:21:27.801Z,3.17
2017-10-25T11:23:54.368Z,6.60
2017-10-25T11:26:20.940Z,4.17
2017-10-25T11:28:47.556Z,3.37
2017-10-25T11:31:14.149Z,3.53
2017-10-25T11:33:40.723Z,3.80
2017-10-25T11:36:07.302Z,5.40
2017-10-25T11:38:33.881Z,3.87
2017-10-25T11:41:00.452Z,4.53
2017-10-25T11:43:27.038Z,6.50
2017-10-25T11:45:53.657Z,15.40
2017-10-25T11:48:20.237Z,5.70
2017-10-25T11:50:46.812Z,9.13
2017-10-25T11:53:13.384Z,6.10
2017-10-25T11:55:39.995Z,4.43
2017-10-25T11:58:06.560Z,7.10
2017-10-25T12:00:33.146Z,4.20
2017-10-25T12:02:59.715Z,3.33
2017-10-25T12:05:26.337Z,4.80
2017-10-25T12:07:52.956Z,6.90
2017-10-25T12:10:19.529Z,4.30
2017-10-25T12:12:46.151Z,33.67
2017-10-25T12:15:12.720Z,4.40
2017-10-25T12:17:39.311Z,4.07
2017-10-25T12:20:05.886Z,8.07
2017-10-25T12:22:32.464Z,3.30
2017-10-25T12:24:59.032Z,4.57
2017-10-25T12:27:25.614Z,4.67
2017-10-25T12:29:52.184Z,5.83
2017-10-25T12:32:18.752Z,4.43
2017-10-25T12:34:45.336Z,4.63
2017-10-25T12:37:11.915Z,10.10
2017-10-25T12:39:38.494Z,6.77
2017-10-25T12:42:05.068Z,3.90
2017-10-25T12:44:31.641Z,4.73
2017-10-25T12:46:58.220Z,4.33
2017-10-25T12:49:24.805Z,5.13
2017-10-25T12:51:51.367Z,4.33
2017-10-25T12:54:17.949Z,4.10
2017-10-25T12:56:44.516Z,3.73
2017-10-25T12:59:11.104Z,4.73
2017-10-25T13:01:37.672Z,3.47
2017-10-25T13:04:04.254Z,3.90
2017-10-25T13:06:30.824Z,5.70
2017-10-25T13:09:03.245Z,4.17
2017-10-25T13:11:38.828Z,7.80
2017-10-25T13:14:25.761Z,7.90
2017-10-25T13:17:18.178Z,5.23
2017-10-25T13:19:44.744Z,14.60
2017-10-25T13:22:11.316Z,6.47
2017-10-25T13:24:37.891Z,4.73
2017-10-25T13:27:04.460Z,4.17
2017-10-25T13:29:31.098Z,5.20
2017-10-25T13:31:57.680Z,9.83
2017-10-25T13:34:24.263Z,5.00
2017-10-25T13:36:51.066Z,12.17
2017-10-25T13:39:17.628Z,8.30
2017-10-25T13:41:44.204Z,7.97
2017-10-25T13:44:10.779Z,7.13
2017-10-25T13:46:37.364Z,13.33
2017-10-25T13:49:03.946Z,14.27
2017-10-25T13:51:30.507Z,12.23
2017-10-25T13:53:57.104Z,9.00
2017-10-25T13:56:23.653Z,8.80
2017-10-25T13:58:50.267Z,13.00
2017-10-25T14:01:16.828Z,13.23
2017-10-25T14:03:43.408Z,6.47
2017-10-25T14:06:09.985Z,10.13
2017-10-25T14:08:36.565Z,11.77
2017-10-25T14:11:03.140Z,7.00
2017-10-25T14:13:29.712Z,7.40
2017-10-25T14:15:56.285Z,5.93
2017-10-25T14:18:22.857Z,4.93
2017-10-25T14:20:49.460Z,4.93
2017-10-25T14:23:16.019Z,5.73
2017-10-25T14:25:42.589Z,5.23
2017-10-25T14:28:14.991Z,6.50
2017-10-25T14:30:41.561Z,5.13
2017-10-25T14:33:08.138Z,5.83
2017-10-25T14:35:34.712Z,7.40
2017-10-25T14:38:01.292Z,8.03
2017-10-25T14:40:27.865Z,6.97
2017-10-25T14:42:54.484Z,5.00
2017-10-25T14:45:21.136Z,6.33
2017-10-25T14:47:47.717Z,7.07
2017-10-25T14:50:14.300Z,5.83
2017-10-25T14:52:40.865Z,8.47
2017-10-25T14:55:07.447Z,9.33
2017-10-25T14:57:34.020Z,5.20
2017-10-25T15:00:00.594Z,7.73
2017-10-25T15:02:27.168Z,5.00
2017-10-25T15:04:53.741Z,4.80
2017-10-25T15:07:20.317Z,5.20
2017-10-25T15:09:46.896Z,5.23
2017-10-25T15:12:13.473Z,4.73
2017-10-25T15:14:40.051Z,4.90
2017-10-25T15:17:06.608Z,5.57
2017-10-25T15:19:33.180Z,9.20
2017-10-25T15:21:59.757Z,6.93
2017-10-25T15:24:26.435Z,6.10
2017-10-25T15:26:53.009Z,4.90
2017-10-25T15:29:19.584Z,6.00
2017-10-25T15:31:47.020Z,5.90
2017-10-25T15:34:13.605Z,5.03
2017-10-25T15:36:40.187Z,4.77
2017-10-25T15:39:06.773Z,6.67
2017-10-25T15:41:33.340Z,6.60
2017-10-25T15:43:59.916Z,6.43
2017-10-25T15:46:26.489Z,7.20
2017-10-25T15:48:53.074Z,8.50
2017-10-25T15:51:19.640Z,7.60
2017-10-25T15:53:46.231Z,8.60
2017-10-25T15:56:12.804Z,10.77
2017-10-25T15:58:39.372Z,8.47
2017-10-25T16:01:05.965Z,7.77
2017-10-25T16:03:32.537Z,7.67
2017-10-25T16:05:59.117Z,6.90
2017-10-25T16:08:25.681Z,6.87
2017-10-25T16:10:52.265Z,9.47
2017-10-25T16:13:18.828Z,8.70
2017-10-25T16:15:45.396Z,9.27
2017-10-25T16:18:11.975Z,6.83
2017-10-25T16:20:38.574Z,16.83
2017-10-25T16:23:05.145Z,9.20
2017-10-25T16:25:31.719Z,9.53
2017-10-25T16:27:58.393Z,9.20
2017-10-25T16:30:24.965Z,7.53
2017-10-25T16:32:51.532Z,7.83
2017-10-25T16:35:18.134Z,6.63
2017-10-25T16:37:44.706Z,8.70
2017-10-25T16:40:11.281Z,7.67
2017-10-25T16:42:37.868Z,10.20
2017-10-25T16:45:04.461Z,12.10
2017-10-25T16:47:31.037Z,10.90
2017-10-25T16:49:57.612Z,11.00
2017-10-25T16:52:24.223Z,13.00
2017-10-25T16:54:50.772Z,10.67
2017-10-25T16:57:17.351Z,11.03
2017-10-25T16:59:43.924Z,12.53
2017-10-25T17:02:10.525Z,14.53
2017-10-25T17:04:37.096Z,8.63
2017-10-25T17:07:03.729Z,14.60
2017-10-25T17:09:30.383Z,8.63
2017-10-25T17:11:56.955Z,13.37
2017-10-25T17:14:23.609Z,9.30
2017-10-25T17:16:50.202Z,15.07
2017-10-25T17:19:16.796Z,10.03
2017-10-25T17:21:43.382Z,12.23
2017-10-25T17:24:09.956Z,11.57
2017-10-25T17:26:36.532Z,9.60
2017-10-25T17:29:03.117Z,11.20
2017-10-25T17:31:29.744Z,11.13
2017-10-25T17:33:56.324Z,18.50
2017-10-25T17:36:22.961Z,13.30
2017-10-25T17:38:49.555Z,18.00
2017-10-25T17:41:16.138Z,16.47
2017-10-25T17:43:42.711Z,15.87
2017-10-25T17:46:09.296Z,13.00
2017-10-25T17:48:35.877Z,14.27
2017-10-25T17:51:02.478Z,14.53
2017-10-25T17:53:29.040Z,14.73
2017-10-25T17:55:55.637Z,13.67
2017-10-25T17:58:22.326Z,14.43
2017-10-25T18:00:48.888Z,15.90
2017-10-25T18:03:15.480Z,16.77
2017-10-25T18:05:42.072Z,17.93
2017-10-25T18:08:08.652Z,20.70
2017-10-25T18:10:35.248Z,14.73
2017-10-25T18:13:01.833Z,18.27
2017-10-25T18:15:28.417Z,14.87
2017-10-25T18:17:54.997Z,17.40
2017-10-25T18:20:21.576Z,14.10
2017-10-25T18:22:48.160Z,18.47
2017-10-25T18:25:14.749Z,18.73
2017-10-25T18:27:41.361Z,16.80
2017-10-25T18:30:07.932Z,14.93
2017-10-25T18:32:34.512Z,17.97
2017-10-25T18:35:01.692Z,15.00
2017-10-25T18:37:28.272Z,16.20
2017-10-25T18:39:54.857Z,16.60
2017-10-25T18:42:21.445Z,20.10
2017-10-25T18:44:48.024Z,18.83
2017-10-25T18:47:14.821Z,17.97
2017-10-25T18:49:41.376Z,13.90
2017-10-25T18:52:07.973Z,19.50
2017-10-25T18:54:35.462Z,21.70
2017-10-25T18:57:02.029Z,20.53
2017-10-25T18:59:28.616Z,17.70
2017-10-25T19:02:01.433Z,18.40
2017-10-25T19:04:28.685Z,19.53
2017-10-25T19:06:55.263Z,24.70
2017-10-25T19:09:21.843Z,18.17
2017-10-25T19:11:50.420Z,19.23
2017-10-25T19:14:17.005Z,21.00
2017-10-25T19:16:43.688Z,16.20
2017-10-25T19:19:10.296Z,20.87
2017-10-25T19:21:36.888Z,20.53
2017-10-25T19:24:03.572Z,18.30
2017-10-25T19:26:30.152Z,20.07
2017-10-25T19:28:56.736Z,22.63
2017-10-25T19:31:23.361Z,19.93
2017-10-25T19:33:49.949Z,24.03
2017-10-25T19:36:16.524Z,20.10
2017-10-25T19:38:43.138Z,20.10
2017-10-25T19:41:09.823Z,25.40
2017-10-25T19:43:36.382Z,20.70
2017-10-25T19:46:02.960Z,18.70
2017-10-25T19:48:29.537Z,23.00
2017-10-25T19:50:56.145Z,25.33
2017-10-25T19:53:22.721Z,22.43
2017-10-25T19:55:49.332Z,21.00
2017-10-25T19:58:15.935Z,22.13
2017-10-25T20:00:42.547Z,20.33
2017-10-25T20:03:09.133Z,20.67
2017-10-25T20:05:35.712Z,22.10
2017-10-25T20:08:12.520Z,22.07
2017-10-25T20:10:39.096Z,22.37
2017-10-25T20:13:05.740Z,25.17
2017-10-25T20:15:32.328Z,19.70
2017-10-25T20:17:58.901Z,16.20
2017-10-25T20:20:25.510Z,14.70
2017-10-25T20:22:52.069Z,18.33
2017-10-25T20:25:18.657Z,15.87
2017-10-25T20:27:45.310Z,20.30
2017-10-25T20:30:11.880Z,18.03
2017-10-25T20:32:38.456Z,20.87
2017-10-25T20:35:05.033Z,20.37
2017-10-25T20:37:31.613Z,15.73
2017-10-25T20:39:58.204Z,19.30
2017-10-25T20:42:24.793Z,22.03
2017-10-25T20:44:51.377Z,22.20
2017-10-25T20:47:17.959Z,18.00
2017-10-25T20:49:44.550Z,16.87
2017-10-25T20:52:11.140Z,19.70
2017-10-25T20:54:37.736Z,21.30
2017-10-25T20:57:04.316Z,17.90
2017-10-25T20:59:30.897Z,20.00
2017-10-25T21:01:57.472Z,17.63
2017-10-25T21:04:24.048Z,16.00
2017-10-25T21:06:50.637Z,19.50
2017-10-25T21:09:17.212Z,20.50
2017-10-25T21:11:43.793Z,17.00
2017-10-25T21:14:10.380Z,21.87
2017-10-25T21:16:36.957Z,20.60
2017-10-25T21:19:03.544Z,18.17
2017-10-25T21:21:30.132Z,17.53
2017-10-25T21:23:56.723Z,17.20
2017-10-25T21:26:23.307Z,15.73
2017-10-25T21:28:49.884Z,18.00
2017-10-25T21:31:16.533Z,16.10
2017-10-25T21:33:43.108Z,19.10
2017-10-25T21:36:09.702Z,19.60
2017-10-25T21:38:36.292Z,18.13
2017-10-25T21:41:02.880Z,23.40
2017-10-25T21:43:29.460Z,20.60
2017-10-25T21:45:56.050Z,16.60
2017-10-25T21:48:22.734Z,19.63
2017-10-25T21:50:49.312Z,17.50
2017-10-25T21:53:15.904Z,19.93
2017-10-25T21:55:42.484Z,19.37
2017-10-25T21:58:09.077Z,20.60
2017-10-25T22:00:35.660Z,21.80
2017-10-25T22:03:02.433Z,20.37
2017-10-25T22:05:29.021Z,15.33
2017-10-25T22:07:55.647Z,12.83
2017-10-25T22:10:22.275Z,13.23
2017-10-25T22:12:48.893Z,18.77
2017-10-25T22:15:15.530Z,18.00
2017-10-25T22:17:42.105Z,17.70
2017-10-25T22:20:08.712Z,15.53
2017-10-25T22:22:35.300Z,14.03
2017-10-25T22:25:01.888Z,19.00
2017-10-25T22:27:28.465Z,16.03
2017-10-25T22:29:55.045Z,15.33
2017-10-25T22:32:21.628Z,20.13
2017-10-25T22:34:48.204Z,17.80
2017-10-25T22:37:14.784Z,19.10
2017-10-25T22:39:41.380Z,14.07
2017-10-25T22:42:07.954Z,16.70
2017-10-25T22:44:34.550Z,19.43
2017-10-25T22:47:01.129Z,14.93
2017-10-25T22:49:30.172Z,18.57
2017-10-25T22:51:56.765Z,13.60
2017-10-25T22:54:23.373Z,13.93
2017-10-25T22:56:50.047Z,11.70
2017-10-25T22:59:16.649Z,13.83
2017-10-25T23:01:43.224Z,14.67
2017-10-25T23:04:09.800Z,13.57
2017-10-25T23:06:36.383Z,15.03
2017-10-25T23:09:02.959Z,24.23
2017-10-25T23:11:29.559Z,11.80
2017-10-25T23:13:56.138Z,14.50
2017-10-25T23:16:22.723Z,18.67
2017-10-25T23:18:49.345Z,14.87
2017-10-25T23:21:15.932Z,20.87
2017-10-25T23:23:42.513Z,18.50
2017-10-25T23:26:09.084Z,20.73
2017-10-25T23:28:35.676Z,20.73
2017-10-25T23:31:02.260Z,20.83
2017-10-25T23:33:28.844Z,20.00
2017-10-25T23:35:55.428Z,24.30
2017-10-25T23:38:22.004Z,20.13
2017-10-25T23:40:48.597Z,22.60
2017-10-25T23:43:15.183Z,24.93
2017-10-25T23:45:41.760Z,24.30
2017-10-25T23:48:08.344Z,22.13
2017-10-25T23:50:34.923Z,20.97
2017-10-25T23:53:01.514Z,22.70
2017-10-25T23:55:28.093Z,24.50
2017-10-25T23:57:54.685Z,20.63
